sensor_id;sensor_type;location;lat;lon;timestamp;pressure;altitude;pressure_sealevel;temperature;humidity
50852;BME280;43953;45.508;-122.806;2022-08-25T00:00:21;100076.75;;;36.76;26.53
50852;BME280;43953;45.508;-122.806;2022-08-25T00:00:53;100078.34;;;36.77;26.23
50852;BME280;43953;45.508;-122.806;2022-08-25T00:01:25;100082.34;;;36.76;26.34
50852;BME280;43953;45.508;-122.806;2022-08-25T00:01:59;100080.75;;;36.75;26.51
50852;BME280;43953;45.508;-122.806;2022-08-25T00:02:30;100071.94;;;36.73;26.36
50852;BME280;43953;45.508;-122.806;2022-08-25T00:03:01;100073.16;;;36.72;26.71
50852;BME280;43953;45.508;-122.806;2022-08-25T00:03:33;100081.56;;;36.72;26.41
50852;BME280;43953;45.508;-122.806;2022-08-25T00:04:05;100078.34;;;36.73;26.48
50852;BME280;43953;45.508;-122.806;2022-08-25T00:04:37;100076.34;;;36.74;26.59
50852;BME280;43953;45.508;-122.806;2022-08-25T00:05:08;100075.53;;;36.73;26.28
50852;BME280;43953;45.508;-122.806;2022-08-25T00:05:40;100072.72;;;36.73;26.23
50852;BME280;43953;45.508;-122.806;2022-08-25T00:06:11;100073.53;;;36.74;26.38
50852;BME280;43953;45.508;-122.806;2022-08-25T00:06:43;100070.72;;;36.74;26.75
50852;BME280;43953;45.508;-122.806;2022-08-25T00:07:15;100076.34;;;36.74;26.39
50852;BME280;43953;45.508;-122.806;2022-08-25T00:07:46;100077.16;;;36.74;26.65
50852;BME280;43953;45.508;-122.806;2022-08-25T00:08:17;100079.53;;;36.76;26.35
50852;BME280;43953;45.508;-122.806;2022-08-25T00:08:49;100073.94;;;36.76;26.81
50852;BME280;43953;45.508;-122.806;2022-08-25T00:09:21;100071.94;;;36.76;26.53
50852;BME280;43953;45.508;-122.806;2022-08-25T00:09:53;100076.75;;;36.76;26.36
50852;BME280;43953;45.508;-122.806;2022-08-25T00:10:25;100072.34;;;36.75;26.36
50852;BME280;43953;45.508;-122.806;2022-08-25T00:10:56;100073.53;;;36.74;26.49
50852;BME280;43953;45.508;-122.806;2022-08-25T00:11:28;100069.13;;;36.73;26.40
50852;BME280;43953;45.508;-122.806;2022-08-25T00:12:00;100076.34;;;36.74;26.63
50852;BME280;43953;45.508;-122.806;2022-08-25T00:12:32;100072.72;;;36.73;26.27
50852;BME280;43953;45.508;-122.806;2022-08-25T00:13:03;100073.53;;;36.74;26.51
50852;BME280;43953;45.508;-122.806;2022-08-25T00:13:35;100074.34;;;36.74;26.39
50852;BME280;43953;45.508;-122.806;2022-08-25T00:14:08;100070.72;;;36.74;26.10
50852;BME280;43953;45.508;-122.806;2022-08-25T00:14:40;100078.75;;;36.72;26.22
50852;BME280;43953;45.508;-122.806;2022-08-25T00:15:13;100075.56;;;36.70;26.07
50852;BME280;43953;45.508;-122.806;2022-08-25T00:15:44;100074.75;;;36.69;26.35
50852;BME280;43953;45.508;-122.806;2022-08-25T00:16:17;100069.53;;;36.67;26.30
50852;BME280;43953;45.508;-122.806;2022-08-25T00:16:49;100071.94;;;36.69;26.34
50852;BME280;43953;45.508;-122.806;2022-08-25T00:17:21;100069.16;;;36.69;26.28
50852;BME280;43953;45.508;-122.806;2022-08-25T00:17:52;100079.94;;;36.71;26.19
50852;BME280;43953;45.508;-122.806;2022-08-25T00:18:23;100067.94;;;36.70;26.01
50852;BME280;43953;45.508;-122.806;2022-08-25T00:18:55;100065.13;;;36.70;26.34
50852;BME280;43953;45.508;-122.806;2022-08-25T00:19:30;100069.56;;;36.71;25.93
50852;BME280;43953;45.508;-122.806;2022-08-25T00:20:02;100071.53;;;36.71;25.94
50852;BME280;43953;45.508;-122.806;2022-08-25T00:20:34;100069.16;;;36.69;26.05
50852;BME280;43953;45.508;-122.806;2022-08-25T00:21:05;100065.94;;;36.67;26.07
50852;BME280;43953;45.508;-122.806;2022-08-25T00:21:37;100067.94;;;36.66;26.19
50852;BME280;43953;45.508;-122.806;2022-08-25T00:22:10;100070.34;;;36.64;25.96
50852;BME280;43953;45.508;-122.806;2022-08-25T00:22:41;100069.53;;;36.64;25.86
50852;BME280;43953;45.508;-122.806;2022-08-25T00:23:13;100062.72;;;36.61;25.84
50852;BME280;43953;45.508;-122.806;2022-08-25T00:23:44;100065.53;;;36.61;25.89
50852;BME280;43953;45.508;-122.806;2022-08-25T00:24:16;100072.75;;;36.59;25.78
50852;BME280;43953;45.508;-122.806;2022-08-25T00:24:48;100063.16;;;36.56;26.02
50852;BME280;43953;45.508;-122.806;2022-08-25T00:25:19;100062.34;;;36.56;25.83
50852;BME280;43953;45.508;-122.806;2022-08-25T00:25:51;100065.13;;;36.56;25.99
50852;BME280;43953;45.508;-122.806;2022-08-25T00:26:22;100060.75;;;36.55;25.95
50852;BME280;43953;45.508;-122.806;2022-08-25T00:26:54;100066.34;;;36.55;26.02
50852;BME280;43953;45.508;-122.806;2022-08-25T00:27:26;100059.16;;;36.54;25.92
50852;BME280;43953;45.508;-122.806;2022-08-25T00:27:57;100067.16;;;36.52;26.20
50852;BME280;43953;45.508;-122.806;2022-08-25T00:28:29;100064.34;;;36.48;26.09
50852;BME280;43953;45.508;-122.806;2022-08-25T00:29:00;100062.31;;;36.49;26.16
50852;BME280;43953;45.508;-122.806;2022-08-25T00:29:32;100055.13;;;36.48;26.11
50852;BME280;43953;45.508;-122.806;2022-08-25T00:30:04;100061.53;;;36.48;26.24
50852;BME280;43953;45.508;-122.806;2022-08-25T00:30:36;100057.50;;;36.49;26.31
50852;BME280;43953;45.508;-122.806;2022-08-25T00:31:12;100065.53;;;36.51;26.36
50852;BME280;43953;45.508;-122.806;2022-08-25T00:31:44;100065.53;;;36.51;26.31
50852;BME280;43953;45.508;-122.806;2022-08-25T00:32:15;100059.09;;;36.50;26.25
50852;BME280;43953;45.508;-122.806;2022-08-25T00:32:48;100064.72;;;36.50;26.15
50852;BME280;43953;45.508;-122.806;2022-08-25T00:33:19;100065.53;;;36.51;26.29
50852;BME280;43953;45.508;-122.806;2022-08-25T00:33:50;100065.53;;;36.51;26.45
50852;BME280;43953;45.508;-122.806;2022-08-25T00:34:24;100066.34;;;36.51;26.46
50852;BME280;43953;45.508;-122.806;2022-08-25T00:34:56;100066.34;;;36.51;26.15
50852;BME280;43953;45.508;-122.806;2022-08-25T00:35:28;100058.75;;;36.52;26.54
50852;BME280;43953;45.508;-122.806;2022-08-25T00:35:59;100060.72;;;36.51;26.37
50852;BME280;43953;45.508;-122.806;2022-08-25T00:36:30;100069.13;;;36.51;26.42
50852;BME280;43953;45.508;-122.806;2022-08-25T00:37:02;100068.34;;;36.51;26.23
50852;BME280;43953;45.508;-122.806;2022-08-25T00:37:34;100064.72;;;36.50;26.29
50852;BME280;43953;45.508;-122.806;2022-08-25T00:38:08;100063.13;;;36.49;26.19
50852;BME280;43953;45.508;-122.806;2022-08-25T00:38:40;100068.72;;;36.49;26.37
50852;BME280;43953;45.508;-122.806;2022-08-25T00:39:12;100065.50;;;36.47;26.43
50852;BME280;43953;45.508;-122.806;2022-08-25T00:39:43;100059.91;;;36.47;26.50
50852;BME280;43953;45.508;-122.806;2022-08-25T00:40:14;100063.13;;;36.45;26.53
50852;BME280;43953;45.508;-122.806;2022-08-25T00:40:46;100069.13;;;36.44;26.54
50852;BME280;43953;45.508;-122.806;2022-08-25T00:41:35;100069.91;;;36.41;26.70
50852;BME280;43953;45.508;-122.806;2022-08-25T00:42:07;100064.72;;;36.39;26.61
50852;BME280;43953;45.508;-122.806;2022-08-25T00:42:39;100071.13;;;36.36;26.83
50852;BME280;43953;45.508;-122.806;2022-08-25T00:43:11;100065.91;;;36.35;26.89
50852;BME280;43953;45.508;-122.806;2022-08-25T00:43:44;100061.53;;;36.34;26.91
50852;BME280;43953;45.508;-122.806;2022-08-25T00:44:16;100061.91;;;36.32;26.95
50852;BME280;43953;45.508;-122.806;2022-08-25T00:44:48;100066.34;;;36.33;26.96
50852;BME280;43953;45.508;-122.806;2022-08-25T00:45:20;100064.31;;;36.34;27.14
50852;BME280;43953;45.508;-122.806;2022-08-25T00:45:52;100064.31;;;36.34;27.01
50852;BME280;43953;45.508;-122.806;2022-08-25T00:46:24;100068.72;;;36.35;26.81
50852;BME280;43953;45.508;-122.806;2022-08-25T00:46:57;100060.72;;;36.33;26.94
50852;BME280;43953;45.508;-122.806;2022-08-25T00:47:28;100061.13;;;36.32;27.14
50852;BME280;43953;45.508;-122.806;2022-08-25T00:48:00;100068.72;;;36.31;26.96
50852;BME280;43953;45.508;-122.806;2022-08-25T00:48:32;100065.13;;;36.31;27.16
50852;BME280;43953;45.508;-122.806;2022-08-25T00:49:47;100063.53;;;36.30;26.83
50852;BME280;43953;45.508;-122.806;2022-08-25T00:49:58;100063.13;;;36.28;26.99
50852;BME280;43953;45.508;-122.806;2022-08-25T00:50:31;100059.53;;;36.27;26.65
50852;BME280;43953;45.508;-122.806;2022-08-25T00:51:04;100061.50;;;36.23;26.58
50852;BME280;43953;45.508;-122.806;2022-08-25T00:51:38;100057.13;;;36.22;26.74
50852;BME280;43953;45.508;-122.806;2022-08-25T00:52:29;100065.91;;;36.20;26.92
50852;BME280;43953;45.508;-122.806;2022-08-25T00:53:02;100058.31;;;36.17;26.88
50852;BME280;43953;45.508;-122.806;2022-08-25T00:53:35;100062.31;;;36.16;26.87
50852;BME280;43953;45.508;-122.806;2022-08-25T00:54:07;100066.31;;;36.15;26.97
50852;BME280;43953;45.508;-122.806;2022-08-25T00:54:44;100057.50;;;36.13;27.08
50852;BME280;43953;45.508;-122.806;2022-08-25T00:55:21;100065.50;;;36.11;27.06
50852;BME280;43953;45.508;-122.806;2022-08-25T00:55:53;100061.09;;;36.10;27.19
50852;BME280;43953;45.508;-122.806;2022-08-25T00:56:24;100069.50;;;36.10;27.23
50852;BME280;43953;45.508;-122.806;2022-08-25T00:56:57;100059.50;;;36.09;27.19
50852;BME280;43953;45.508;-122.806;2022-08-25T00:57:32;100068.72;;;36.10;27.17
50852;BME280;43953;45.508;-122.806;2022-08-25T00:58:09;100060.69;;;36.08;27.23
50852;BME280;43953;45.508;-122.806;2022-08-25T00:58:43;100061.50;;;36.05;27.16
50852;BME280;43953;45.508;-122.806;2022-08-25T00:59:15;100066.69;;;36.03;27.12
50852;BME280;43953;45.508;-122.806;2022-08-25T00:59:46;100068.66;;;36.03;27.04
50852;BME280;43953;45.508;-122.806;2022-08-25T01:00:29;100066.28;;;36.01;27.22
50852;BME280;43953;45.508;-122.806;2022-08-25T01:01:01;100068.66;;;35.99;27.36
50852;BME280;43953;45.508;-122.806;2022-08-25T01:01:32;100064.28;;;35.98;27.13
50852;BME280;43953;45.508;-122.806;2022-08-25T01:02:05;100063.06;;;35.95;27.03
50852;BME280;43953;45.508;-122.806;2022-08-25T01:02:37;100063.84;;;35.92;27.29
50852;BME280;43953;45.508;-122.806;2022-08-25T01:03:08;100064.66;;;35.89;27.10
50852;BME280;43953;45.508;-122.806;2022-08-25T01:03:39;100052.66;;;35.85;27.30
50852;BME280;43953;45.508;-122.806;2022-08-25T01:04:10;100063.03;;;35.85;27.14
50852;BME280;43953;45.508;-122.806;2022-08-25T01:04:42;100065.44;;;35.83;27.47
50852;BME280;43953;45.508;-122.806;2022-08-25T01:05:14;100059.84;;;35.83;27.32
50852;BME280;43953;45.508;-122.806;2022-08-25T01:05:45;100064.63;;;35.82;27.42
50852;BME280;43953;45.508;-122.806;2022-08-25T01:06:17;100068.63;;;35.81;27.31
50852;BME280;43953;45.508;-122.806;2022-08-25T01:06:49;100068.63;;;35.81;27.36
50852;BME280;43953;45.508;-122.806;2022-08-25T01:07:20;100067.84;;;35.81;27.33
50852;BME280;43953;45.508;-122.806;2022-08-25T01:07:53;100071.84;;;35.80;27.53
50852;BME280;43953;45.508;-122.806;2022-08-25T01:08:25;100063.03;;;35.77;27.38
50852;BME280;43953;45.508;-122.806;2022-08-25T01:08:58;100069.84;;;35.76;27.48
50852;BME280;43953;45.508;-122.806;2022-08-25T01:09:30;100066.63;;;35.74;27.48
50852;BME280;43953;45.508;-122.806;2022-08-25T01:10:03;100063.41;;;35.72;27.52
50852;BME280;43953;45.508;-122.806;2022-08-25T01:10:36;100063.03;;;35.70;27.45
50852;BME280;43953;45.508;-122.806;2022-08-25T01:11:09;100059.38;;;35.66;27.14
50852;BME280;43953;45.508;-122.806;2022-08-25T01:11:41;100058.59;;;35.62;27.47
50852;BME280;43953;45.508;-122.806;2022-08-25T01:12:14;100058.97;;;35.61;27.30
50852;BME280;43953;45.508;-122.806;2022-08-25T01:12:45;100059.38;;;35.59;27.50
50852;BME280;43953;45.508;-122.806;2022-08-25T01:13:20;100061.38;;;35.59;27.32
50852;BME280;43953;45.508;-122.806;2022-08-25T01:13:54;100054.16;;;35.58;27.62
50852;BME280;43953;45.508;-122.806;2022-08-25T01:14:27;100057.75;;;35.58;27.80
50852;BME280;43953;45.508;-122.806;2022-08-25T01:15:01;100059.75;;;35.58;27.54
50852;BME280;43953;45.508;-122.806;2022-08-25T01:15:33;100056.56;;;35.56;27.70
50852;BME280;43953;45.508;-122.806;2022-08-25T01:16:04;100060.16;;;35.56;27.51
50852;BME280;43953;45.508;-122.806;2022-08-25T01:16:37;100057.38;;;35.56;27.58
50852;BME280;43953;45.508;-122.806;2022-08-25T01:17:08;100056.94;;;35.54;27.50
50852;BME280;43953;45.508;-122.806;2022-08-25T01:17:48;100055.34;;;35.53;27.49
50852;BME280;43953;45.508;-122.806;2022-08-25T01:18:19;100064.53;;;35.50;27.33
50852;BME280;43953;45.508;-122.806;2022-08-25T01:18:55;100050.09;;;35.48;27.51
50852;BME280;43953;45.508;-122.806;2022-08-25T01:19:27;100068.09;;;35.47;27.63
50852;BME280;43953;45.508;-122.806;2022-08-25T01:19:59;100058.09;;;35.46;27.60
50852;BME280;43953;45.508;-122.806;2022-08-25T01:20:30;100050.91;;;35.45;27.52
50852;BME280;43953;45.508;-122.806;2022-08-25T01:21:02;100061.69;;;35.43;27.73
50852;BME280;43953;45.508;-122.806;2022-08-25T01:21:38;100062.09;;;35.41;27.65
50852;BME280;43953;45.508;-122.806;2022-08-25T01:22:09;100058.06;;;35.39;27.44
50852;BME280;43953;45.508;-122.806;2022-08-25T01:22:42;100062.06;;;35.38;27.68
50852;BME280;43953;45.508;-122.806;2022-08-25T01:23:16;100060.47;;;35.37;27.87
50852;BME280;43953;45.508;-122.806;2022-08-25T01:23:48;100062.03;;;35.34;27.71
50852;BME280;43953;45.508;-122.806;2022-08-25T01:25:10;100056.44;;;35.30;27.63
50852;BME280;43953;45.508;-122.806;2022-08-25T01:25:49;100062.03;;;35.27;27.61
50852;BME280;43953;45.508;-122.806;2022-08-25T01:26:22;100066.41;;;35.24;27.48
50852;BME280;43953;45.508;-122.806;2022-08-25T01:26:54;100061.59;;;35.21;27.38
50852;BME280;43953;45.508;-122.806;2022-08-25T01:27:25;100059.56;;;35.18;27.53
50852;BME280;43953;45.508;-122.806;2022-08-25T01:27:56;100059.16;;;35.16;27.34
50852;BME280;43953;45.508;-122.806;2022-08-25T01:28:28;100064.38;;;35.14;27.51
50852;BME280;43953;45.508;-122.806;2022-08-25T01:29:00;100070.72;;;35.11;27.51
50852;BME280;43953;45.508;-122.806;2022-08-25T01:29:50;100063.09;;;35.08;27.55
50852;BME280;43953;45.508;-122.806;2022-08-25T01:30:21;100065.50;;;35.06;27.91
50852;BME280;43953;45.508;-122.806;2022-08-25T01:30:53;100061.91;;;35.05;27.92
50852;BME280;43953;45.508;-122.806;2022-08-25T01:31:24;100066.69;;;35.05;27.71
50852;BME280;43953;45.508;-122.806;2022-08-25T01:32:00;100065.88;;;35.04;27.73
50852;BME280;43953;45.508;-122.806;2022-08-25T01:32:32;100066.28;;;35.03;27.97
50852;BME280;43953;45.508;-122.806;2022-08-25T01:33:05;100067.06;;;35.00;28.05
50852;BME280;43953;45.508;-122.806;2022-08-25T01:33:37;100062.25;;;34.97;27.62
50852;BME280;43953;45.508;-122.806;2022-08-25T01:34:08;100065.81;;;34.94;27.86
50852;BME280;43953;45.508;-122.806;2022-08-25T01:34:43;100064.97;;;34.90;27.83
50852;BME280;43953;45.508;-122.806;2022-08-25T01:35:14;100068.19;;;34.88;27.82
50852;BME280;43953;45.508;-122.806;2022-08-25T01:35:46;100064.16;;;34.85;27.95
50852;BME280;43953;45.508;-122.806;2022-08-25T01:36:18;100069.34;;;34.83;27.91
50852;BME280;43953;45.508;-122.806;2022-08-25T01:36:49;100067.31;;;34.80;27.88
50852;BME280;43953;45.508;-122.806;2022-08-25T01:37:21;100062.13;;;34.79;28.16
50852;BME280;43953;45.508;-122.806;2022-08-25T01:37:52;100062.50;;;34.77;27.90
50852;BME280;43953;45.508;-122.806;2022-08-25T01:38:23;100066.50;;;34.76;28.17
50852;BME280;43953;45.508;-122.806;2022-08-25T01:38:55;100071.66;;;34.74;28.12
50852;BME280;43953;45.508;-122.806;2022-08-25T01:39:27;100072.44;;;34.71;28.00
50852;BME280;43953;45.508;-122.806;2022-08-25T01:39:59;100069.22;;;34.69;27.96
50852;BME280;43953;45.508;-122.806;2022-08-25T01:40:30;100071.63;;;34.67;28.27
50852;BME280;43953;45.508;-122.806;2022-08-25T01:41:02;100067.22;;;34.66;28.28
50852;BME280;43953;45.508;-122.806;2022-08-25T01:42:46;100070.00;;;34.62;28.41
50852;BME280;43953;45.508;-122.806;2022-08-25T01:43:40;100075.16;;;34.60;28.41
50852;BME280;43953;45.508;-122.806;2022-08-25T01:44:11;100071.97;;;34.58;28.18
50852;BME280;43953;45.508;-122.806;2022-08-25T01:44:43;100068.34;;;34.58;28.26
50852;BME280;43953;45.508;-122.806;2022-08-25T01:45:14;100075.13;;;34.57;28.14
50852;BME280;43953;45.508;-122.806;2022-08-25T01:45:46;100071.91;;;34.55;28.46
50852;BME280;43953;45.508;-122.806;2022-08-25T01:46:18;100079.06;;;34.52;28.12
50852;BME280;43953;45.508;-122.806;2022-08-25T01:46:49;100068.28;;;34.51;28.04
50852;BME280;43953;45.508;-122.806;2022-08-25T01:47:21;100068.66;;;34.49;28.20
50852;BME280;43953;45.508;-122.806;2022-08-25T01:47:52;100073.06;;;34.50;28.64
50852;BME280;43953;45.508;-122.806;2022-08-25T01:48:24;100072.66;;;34.52;28.27
50852;BME280;43953;45.508;-122.806;2022-08-25T01:48:55;100071.50;;;34.53;28.31
50852;BME280;43953;45.508;-122.806;2022-08-25T01:49:26;100079.88;;;34.53;28.35
50852;BME280;43953;45.508;-122.806;2022-08-25T01:49:58;100073.88;;;34.51;28.64
50852;BME280;43953;45.508;-122.806;2022-08-25T01:50:29;100075.06;;;34.50;28.24
50852;BME280;43953;45.508;-122.806;2022-08-25T01:51:01;100070.63;;;34.49;28.52
50852;BME280;43953;45.508;-122.806;2022-08-25T01:51:34;100079.03;;;34.49;28.38
50852;BME280;43953;45.508;-122.806;2022-08-25T01:52:15;100076.63;;;34.47;28.50
50852;BME280;43953;45.508;-122.806;2022-08-25T01:53:22;100070.63;;;34.45;28.49
50852;BME280;43953;45.508;-122.806;2022-08-25T01:53:53;100073.00;;;34.43;28.67
50852;BME280;43953;45.508;-122.806;2022-08-25T01:54:24;100076.19;;;34.41;28.74
50852;BME280;43953;45.508;-122.806;2022-08-25T01:54:56;100078.19;;;34.41;28.64
50852;BME280;43953;45.508;-122.806;2022-08-25T01:55:27;100073.38;;;34.38;28.83
50852;BME280;43953;45.508;-122.806;2022-08-25T01:55:58;100083.75;;;34.37;28.74
50852;BME280;43953;45.508;-122.806;2022-08-25T01:56:35;100076.94;;;34.35;28.51
50852;BME280;43953;45.508;-122.806;2022-08-25T01:57:06;100075.72;;;34.32;28.48
50852;BME280;43953;45.508;-122.806;2022-08-25T01:57:37;100078.06;;;34.30;28.80
50852;BME280;43953;45.508;-122.806;2022-08-25T01:58:08;100078.06;;;34.27;28.48
50852;BME280;43953;45.508;-122.806;2022-08-25T01:58:41;100080.41;;;34.25;28.85
50852;BME280;43953;45.508;-122.806;2022-08-25T01:59:16;100086.41;;;34.23;28.60
50852;BME280;43953;45.508;-122.806;2022-08-25T01:59:48;100082.00;;;34.22;28.82
50852;BME280;43953;45.508;-122.806;2022-08-25T02:00:20;100085.19;;;34.20;28.82
50852;BME280;43953;45.508;-122.806;2022-08-25T02:00:52;100087.53;;;34.18;28.83
50852;BME280;43953;45.508;-122.806;2022-08-25T02:01:25;100089.13;;;34.16;28.49
50852;BME280;43953;45.508;-122.806;2022-08-25T02:01:56;100089.88;;;34.13;28.67
50852;BME280;43953;45.508;-122.806;2022-08-25T02:02:27;100087.06;;;34.09;28.73
50852;BME280;43953;45.508;-122.806;2022-08-25T02:02:59;100087.03;;;34.06;28.66
50852;BME280;43953;45.508;-122.806;2022-08-25T02:03:30;100088.94;;;34.02;29.02
50852;BME280;43953;45.508;-122.806;2022-08-25T02:04:02;100088.53;;;34.00;28.97
50852;BME280;43953;45.508;-122.806;2022-08-25T02:04:33;100084.13;;;33.98;28.75
50852;BME280;43953;45.508;-122.806;2022-08-25T02:05:05;100096.91;;;34.00;28.96
50852;BME280;43953;45.508;-122.806;2022-08-25T02:05:36;100089.72;;;33.98;29.12
50852;BME280;43953;45.508;-122.806;2022-08-25T02:06:10;100085.75;;;34.00;29.03
50852;BME280;43953;45.508;-122.806;2022-08-25T02:06:41;100088.53;;;34.00;28.64
50852;BME280;43953;45.508;-122.806;2022-08-25T02:07:13;100090.53;;;33.99;28.86
50852;BME280;43953;45.508;-122.806;2022-08-25T02:07:44;100086.91;;;33.98;29.01
50852;BME280;43953;45.508;-122.806;2022-08-25T02:08:16;100088.13;;;33.97;28.92
50852;BME280;43953;45.508;-122.806;2022-08-25T02:08:53;100092.09;;;33.96;28.82
50852;BME280;43953;45.508;-122.806;2022-08-25T02:09:25;100092.09;;;33.96;28.51
50852;BME280;43953;45.508;-122.806;2022-08-25T02:09:57;100084.09;;;33.95;28.57
50852;BME280;43953;45.508;-122.806;2022-08-25T02:10:28;100093.66;;;33.94;28.67
50852;BME280;43953;45.508;-122.806;2022-08-25T02:11:00;100098.44;;;33.93;29.13
50852;BME280;43953;45.508;-122.806;2022-08-25T02:11:31;100090.44;;;33.92;28.67
50852;BME280;43953;45.508;-122.806;2022-08-25T02:12:05;100095.22;;;33.91;28.73
50852;BME280;43953;45.508;-122.806;2022-08-25T02:12:37;100101.22;;;33.90;29.00
50852;BME280;43953;45.508;-122.806;2022-08-25T02:13:08;100096.00;;;33.88;28.65
50852;BME280;43953;45.508;-122.806;2022-08-25T02:13:40;100096.00;;;33.88;28.71
50852;BME280;43953;45.508;-122.806;2022-08-25T02:14:11;100101.94;;;33.87;28.95
50852;BME280;43953;45.508;-122.806;2022-08-25T02:14:43;100106.34;;;33.84;28.77
50852;BME280;43953;45.508;-122.806;2022-08-25T02:15:14;100103.09;;;33.82;29.13
50852;BME280;43953;45.508;-122.806;2022-08-25T02:15:49;100105.09;;;33.82;28.70
50852;BME280;43953;45.508;-122.806;2022-08-25T02:16:22;100103.88;;;33.79;29.25
50852;BME280;43953;45.508;-122.806;2022-08-25T02:16:55;100106.22;;;33.77;28.78
50852;BME280;43953;45.508;-122.806;2022-08-25T02:17:27;100101.84;;;33.76;29.15
50852;BME280;43953;45.508;-122.806;2022-08-25T02:17:58;100113.00;;;33.76;29.10
50852;BME280;43953;45.508;-122.806;2022-08-25T02:18:30;100109.78;;;33.74;29.21
50852;BME280;43953;45.508;-122.806;2022-08-25T02:19:02;100099.81;;;33.73;29.29
50852;BME280;43953;45.508;-122.806;2022-08-25T02:19:34;100107.75;;;33.71;28.99
50852;BME280;43953;45.508;-122.806;2022-08-25T02:20:05;100107.75;;;33.71;29.26
50852;BME280;43953;45.508;-122.806;2022-08-25T02:20:38;100106.16;;;33.70;29.33
50852;BME280;43953;45.508;-122.806;2022-08-25T02:21:09;100101.38;;;33.70;29.15
50852;BME280;43953;45.508;-122.806;2022-08-25T02:21:41;100104.53;;;33.69;29.10
50852;BME280;43953;45.508;-122.806;2022-08-25T02:22:12;100100.16;;;33.68;29.36
50852;BME280;43953;45.508;-122.806;2022-08-25T02:22:44;100106.13;;;33.66;28.96
50852;BME280;43953;45.508;-122.806;2022-08-25T02:23:15;100102.09;;;33.64;29.18
50852;BME280;43953;45.508;-122.806;2022-08-25T02:23:46;100106.06;;;33.63;29.24
50852;BME280;43953;45.508;-122.806;2022-08-25T02:24:17;100107.25;;;33.62;29.16
50852;BME280;43953;45.508;-122.806;2022-08-25T02:24:49;100108.44;;;33.61;29.22
50852;BME280;43953;45.508;-122.806;2022-08-25T02:25:20;100105.22;;;33.59;29.40
50852;BME280;43953;45.508;-122.806;2022-08-25T02:25:51;100110.81;;;33.59;29.16
50852;BME280;43953;45.508;-122.806;2022-08-25T02:26:22;100109.22;;;33.58;29.73
50852;BME280;43953;45.508;-122.806;2022-08-25T02:26:54;100105.59;;;33.57;29.50
50852;BME280;43953;45.508;-122.806;2022-08-25T02:27:25;100108.78;;;33.56;29.23
50852;BME280;43953;45.508;-122.806;2022-08-25T02:27:56;100113.94;;;33.53;29.44
50852;BME280;43953;45.508;-122.806;2022-08-25T02:28:28;100113.13;;;33.53;29.60
50852;BME280;43953;45.508;-122.806;2022-08-25T02:28:59;100113.06;;;33.49;29.27
50852;BME280;43953;45.508;-122.806;2022-08-25T02:29:31;100105.88;;;33.48;29.26
50852;BME280;43953;45.508;-122.806;2022-08-25T02:30:03;100114.63;;;33.47;29.30
50852;BME280;43953;45.508;-122.806;2022-08-25T02:30:36;100116.59;;;33.46;29.56
50852;BME280;43953;45.508;-122.806;2022-08-25T02:31:07;100113.38;;;33.44;29.51
50852;BME280;43953;45.508;-122.806;2022-08-25T02:31:38;100113.78;;;33.43;29.79
50852;BME280;43953;45.508;-122.806;2022-08-25T02:32:10;100119.72;;;33.41;29.42
50852;BME280;43953;45.508;-122.806;2022-08-25T02:32:41;100105.34;;;33.39;29.73
50852;BME280;43953;45.508;-122.806;2022-08-25T02:33:12;100112.50;;;33.37;29.48
50852;BME280;43953;45.508;-122.806;2022-08-25T02:33:43;100115.66;;;33.35;29.62
50852;BME280;43953;45.508;-122.806;2022-08-25T02:34:15;100116.03;;;33.34;29.88
50852;BME280;43953;45.508;-122.806;2022-08-25T02:34:46;100114.38;;;33.29;29.53
50852;BME280;43953;45.508;-122.806;2022-08-25T02:35:17;100114.75;;;33.27;29.45
50852;BME280;43953;45.508;-122.806;2022-08-25T02:35:49;100115.13;;;33.26;29.47
50852;BME280;43953;45.508;-122.806;2022-08-25T02:36:21;100111.91;;;33.24;29.80
50852;BME280;43953;45.508;-122.806;2022-08-25T02:36:53;100117.50;;;33.24;29.60
50852;BME280;43953;45.508;-122.806;2022-08-25T02:37:24;100111.50;;;33.22;29.77
50852;BME280;43953;45.508;-122.806;2022-08-25T02:37:55;100122.66;;;33.22;29.93
50852;BME280;43953;45.508;-122.806;2022-08-25T02:38:26;100114.28;;;33.22;29.78
50852;BME280;43953;45.508;-122.806;2022-08-25T02:38:58;100116.25;;;33.21;29.48
50852;BME280;43953;45.508;-122.806;2022-08-25T02:39:30;100115.84;;;33.19;29.50
50852;BME280;43953;45.508;-122.806;2022-08-25T02:40:01;100116.22;;;33.18;29.80
50852;BME280;43953;45.508;-122.806;2022-08-25T02:40:33;100115.78;;;33.16;30.01
50852;BME280;43953;45.508;-122.806;2022-08-25T02:41:09;100116.16;;;33.14;29.69
50852;BME280;43953;45.508;-122.806;2022-08-25T02:41:42;100116.53;;;33.13;30.19
50852;BME280;43953;45.508;-122.806;2022-08-25T02:42:13;100125.28;;;33.11;29.70
50852;BME280;43953;45.508;-122.806;2022-08-25T02:42:44;100112.88;;;33.08;30.13
50852;BME280;43953;45.508;-122.806;2022-08-25T02:43:16;100118.03;;;33.06;29.74
50852;BME280;43953;45.508;-122.806;2022-08-25T02:43:47;100120.03;;;33.06;29.96
50852;BME280;43953;45.508;-122.806;2022-08-25T02:44:19;100118.00;;;33.03;29.84
50852;BME280;43953;45.508;-122.806;2022-08-25T02:44:50;100117.19;;;33.02;30.19
50852;BME280;43953;45.508;-122.806;2022-08-25T02:45:21;100118.75;;;33.00;30.00
50852;BME280;43953;45.508;-122.806;2022-08-25T02:45:53;100120.25;;;32.97;29.92